sensor_id;sensor_type;location;lat;lon;timestamp;temperature;humidity
2611;DHT22;5612;51.134;17.058;2023-01-24T00:00:13;3.30;99.90
2611;DHT22;5612;51.134;17.058;2023-01-24T00:02:41;3.30;99.90
2611;DHT22;5612;51.134;17.058;2023-01-24T00:05:12;3.30;99.90
2611;DHT22;5612;51.134;17.058;2023-01-24T00:07:41;3.30;99.90
2611;DHT22;5612;51.134;17.058;2023-01-24T00:10:10;3.30;99.90
2611;DHT22;5612;51.134;17.058;2023-01-24T00:12:39;3.30;99.90
2611;DHT22;5612;51.134;17.058;2023-01-24T00:15:09;3.30;99.90
2611;DHT22;5612;51.134;17.058;2023-01-24T00:17:38;3.30;99.90
2611;DHT22;5612;51.134;17.058;2023-01-24T00:20:08;3.30;99.90
2611;DHT22;5612;51.134;17.058;2023-01-24T00:22:38;3.30;99.90
2611;DHT22;5612;51.134;17.058;2023-01-24T00:25:07;3.20;99.90
2611;DHT22;5612;51.134;17.058;2023-01-24T00:27:36;3.10;99.90
2611;DHT22;5612;51.134;17.058;2023-01-24T00:30:06;3.10;99.90
2611;DHT22;5612;51.134;17.058;2023-01-24T00:32:35;3.00;99.90
2611;DHT22;5612;51.134;17.058;2023-01-24T00:35:04;3.00;99.90
2611;DHT22;5612;51.134;17.058;2023-01-24T00:37:33;3.00;99.90
2611;DHT22;5612;51.134;17.058;2023-01-24T00:40:04;3.10;99.90
2611;DHT22;5612;51.134;17.058;2023-01-24T00:42:33;3.00;99.90
2611;DHT22;5612;51.134;17.058;2023-01-24T00:45:03;3.00;99.90
2611;DHT22;5612;51.134;17.058;2023-01-24T00:47:32;2.90;99.90
2611;DHT22;5612;51.134;17.058;2023-01-24T00:50:00;2.90;99.90
2611;DHT22;5612;51.134;17.058;2023-01-24T00:52:30;2.90;99.90
2611;DHT22;5612;51.134;17.058;2023-01-24T00:54:58;3.00;99.90
2611;DHT22;5612;51.134;17.058;2023-01-24T00:57:29;3.00;99.90
2611;DHT22;5612;51.134;17.058;2023-01-24T00:59:57;2.90;99.90
2611;DHT22;5612;51.134;17.058;2023-01-24T01:02:26;2.80;99.90
2611;DHT22;5612;51.134;17.058;2023-01-24T01:04:55;2.80;99.90
2611;DHT22;5612;51.134;17.058;2023-01-24T01:07:24;2.90;99.90
2611;DHT22;5612;51.134;17.058;2023-01-24T01:09:52;2.90;99.90
2611;DHT22;5612;51.134;17.058;2023-01-24T01:12:21;2.90;99.90
2611;DHT22;5612;51.134;17.058;2023-01-24T01:14:52;3.10;99.90
2611;DHT22;5612;51.134;17.058;2023-01-24T01:17:20;3.10;99.90
2611;DHT22;5612;51.134;17.058;2023-01-24T01:19:50;3.10;99.90
2611;DHT22;5612;51.134;17.058;2023-01-24T01:22:20;3.20;99.90
2611;DHT22;5612;51.134;17.058;2023-01-24T01:24:48;3.10;99.90
2611;DHT22;5612;51.134;17.058;2023-01-24T01:27:17;3.10;99.90
2611;DHT22;5612;51.134;17.058;2023-01-24T01:29:46;3.20;99.90
2611;DHT22;5612;51.134;17.058;2023-01-24T01:32:16;3.20;99.90
2611;DHT22;5612;51.134;17.058;2023-01-24T01:34:45;3.20;99.90
2611;DHT22;5612;51.134;17.058;2023-01-24T01:37:14;3.20;99.90
2611;DHT22;5612;51.134;17.058;2023-01-24T01:39:42;3.20;99.90
2611;DHT22;5612;51.134;17.058;2023-01-24T01:42:11;3.30;99.90
2611;DHT22;5612;51.134;17.058;2023-01-24T01:44:41;3.20;99.90
2611;DHT22;5612;51.134;17.058;2023-01-24T01:47:28;3.20;99.90
2611;DHT22;5612;51.134;17.058;2023-01-24T01:50:01;3.20;99.90
2611;DHT22;5612;51.134;17.058;2023-01-24T01:52:34;3.20;99.90
2611;DHT22;5612;51.134;17.058;2023-01-24T01:55:07;3.10;99.90
2611;DHT22;5612;51.134;17.058;2023-01-24T01:57:36;3.10;99.90
2611;DHT22;5612;51.134;17.058;2023-01-24T02:00:10;3.00;99.90
2611;DHT22;5612;51.134;17.058;2023-01-24T02:02:43;2.90;99.90
2611;DHT22;5612;51.134;17.058;2023-01-24T02:05:16;2.90;99.90
2611;DHT22;5612;51.134;17.058;2023-01-24T02:07:48;3.00;99.90
2611;DHT22;5612;51.134;17.058;2023-01-24T02:10:19;3.00;99.90
2611;DHT22;5612;51.134;17.058;2023-01-24T02:12:53;3.00;99.90
2611;DHT22;5612;51.134;17.058;2023-01-24T02:15:22;3.10;99.90
2611;DHT22;5612;51.134;17.058;2023-01-24T02:18:11;3.20;99.90
2611;DHT22;5612;51.134;17.058;2023-01-24T02:20:41;3.20;99.90
2611;DHT22;5612;51.134;17.058;2023-01-24T02:23:19;3.10;99.90
2611;DHT22;5612;51.134;17.058;2023-01-24T02:26:07;3.20;99.90
2611;DHT22;5612;51.134;17.058;2023-01-24T02:28:36;3.40;99.90
2611;DHT22;5612;51.134;17.058;2023-01-24T02:31:05;3.40;99.90
2611;DHT22;5612;51.134;17.058;2023-01-24T02:33:34;3.30;99.90
2611;DHT22;5612;51.134;17.058;2023-01-24T02:36:21;3.40;99.90
2611;DHT22;5612;51.134;17.058;2023-01-24T02:38:54;3.50;99.90
2611;DHT22;5612;51.134;17.058;2023-01-24T02:41:29;3.50;99.90
2611;DHT22;5612;51.134;17.058;2023-01-24T02:44:04;3.50;99.90
2611;DHT22;5612;51.134;17.058;2023-01-24T02:46:36;3.60;99.90
2611;DHT22;5612;51.134;17.058;2023-01-24T02:49:07;3.60;99.90
2611;DHT22;5612;51.134;17.058;2023-01-24T02:51:37;3.60;99.90
2611;DHT22;5612;51.134;17.058;2023-01-24T02:54:23;3.70;99.90
2611;DHT22;5612;51.134;17.058;2023-01-24T02:56:54;3.70;99.90
2611;DHT22;5612;51.134;17.058;2023-01-24T02:59:40;3.80;99.90
2611;DHT22;5612;51.134;17.058;2023-01-24T03:02:08;3.80;99.90
2611;DHT22;5612;51.134;17.058;2023-01-24T03:04:37;3.80;99.90
2611;DHT22;5612;51.134;17.058;2023-01-24T03:07:06;3.80;99.90
2611;DHT22;5612;51.134;17.058;2023-01-24T03:09:35;3.70;99.90
2611;DHT22;5612;51.134;17.058;2023-01-24T03:12:07;3.70;99.90
2611;DHT22;5612;51.134;17.058;2023-01-24T03:14:53;3.80;99.90
2611;DHT22;5612;51.134;17.058;2023-01-24T03:17:39;3.80;99.90
2611;DHT22;5612;51.134;17.058;2023-01-24T03:20:26;3.80;99.90
2611;DHT22;5612;51.134;17.058;2023-01-24T03:23:12;3.80;99.90
2611;DHT22;5612;51.134;17.058;2023-01-24T03:25:59;3.70;99.90
2611;DHT22;5612;51.134;17.058;2023-01-24T03:28:47;3.60;99.90
2611;DHT22;5612;51.134;17.058;2023-01-24T03:31:33;3.50;99.90
2611;DHT22;5612;51.134;17.058;2023-01-24T03:34:19;3.50;99.90
2611;DHT22;5612;51.134;17.058;2023-01-24T03:37:00;3.60;99.90
2611;DHT22;5612;51.134;17.058;2023-01-24T03:39:29;3.70;99.90
2611;DHT22;5612;51.134;17.058;2023-01-24T03:42:15;3.70;99.90
2611;DHT22;5612;51.134;17.058;2023-01-24T03:44:45;3.70;99.90
2611;DHT22;5612;51.134;17.058;2023-01-24T03:47:14;3.70;99.90
2611;DHT22;5612;51.134;17.058;2023-01-24T03:49:43;3.60;99.90
2611;DHT22;5612;51.134;17.058;2023-01-24T03:52:29;3.60;99.90
2611;DHT22;5612;51.134;17.058;2023-01-24T03:54:59;3.70;99.90
2611;DHT22;5612;51.134;17.058;2023-01-24T03:57:29;3.70;99.90
2611;DHT22;5612;51.134;17.058;2023-01-24T03:59:59;3.60;99.90
2611;DHT22;5612;51.134;17.058;2023-01-24T04:02:28;3.60;99.90
2611;DHT22;5612;51.134;17.058;2023-01-24T04:04:56;3.60;99.90
2611;DHT22;5612;51.134;17.058;2023-01-24T04:07:40;3.50;99.90
2611;DHT22;5612;51.134;17.058;2023-01-24T04:10:10;3.40;99.90
2611;DHT22;5612;51.134;17.058;2023-01-24T04:12:39;3.40;99.90
2611;DHT22;5612;51.134;17.058;2023-01-24T04:15:14;3.40;99.90
2611;DHT22;5612;51.134;17.058;2023-01-24T04:17:43;3.40;99.90
2611;DHT22;5612;51.134;17.058;2023-01-24T04:20:13;3.40;99.90
2611;DHT22;5612;51.134;17.058;2023-01-24T04:22:42;3.30;99.90
2611;DHT22;5612;51.134;17.058;2023-01-24T04:25:10;3.30;99.90
2611;DHT22;5612;51.134;17.058;2023-01-24T04:27:39;3.30;99.90
2611;DHT22;5612;51.134;17.058;2023-01-24T04:30:12;3.30;99.90
2611;DHT22;5612;51.134;17.058;2023-01-24T04:32:41;3.10;99.90
2611;DHT22;5612;51.134;17.058;2023-01-24T04:35:15;3.20;99.90
2611;DHT22;5612;51.134;17.058;2023-01-24T04:37:44;3.30;99.90
2611;DHT22;5612;51.134;17.058;2023-01-24T04:40:13;3.40;99.90
2611;DHT22;5612;51.134;17.058;2023-01-24T04:42:42;3.50;99.90
2611;DHT22;5612;51.134;17.058;2023-01-24T04:45:12;3.60;99.90
2611;DHT22;5612;51.134;17.058;2023-01-24T04:47:41;3.50;99.90
2611;DHT22;5612;51.134;17.058;2023-01-24T04:50:11;3.60;99.90
2611;DHT22;5612;51.134;17.058;2023-01-24T04:52:40;3.50;99.90
2611;DHT22;5612;51.134;17.058;2023-01-24T04:55:09;3.40;99.90
2611;DHT22;5612;51.134;17.058;2023-01-24T04:57:38;3.30;99.90
2611;DHT22;5612;51.134;17.058;2023-01-24T05:00:07;3.30;99.90
2611;DHT22;5612;51.134;17.058;2023-01-24T05:02:38;3.40;99.90
2611;DHT22;5612;51.134;17.058;2023-01-24T05:05:08;3.40;99.90
2611;DHT22;5612;51.134;17.058;2023-01-24T05:07:37;3.40;99.90
2611;DHT22;5612;51.134;17.058;2023-01-24T05:10:07;3.40;99.90
2611;DHT22;5612;51.134;17.058;2023-01-24T05:12:35;3.40;99.90
2611;DHT22;5612;51.134;17.058;2023-01-24T05:15:05;3.40;99.90
2611;DHT22;5612;51.134;17.058;2023-01-24T05:17:34;3.30;99.90
2611;DHT22;5612;51.134;17.058;2023-01-24T05:20:06;3.20;99.90
2611;DHT22;5612;51.134;17.058;2023-01-24T05:22:34;3.20;99.90
2611;DHT22;5612;51.134;17.058;2023-01-24T05:25:04;3.10;99.90
2611;DHT22;5612;51.134;17.058;2023-01-24T05:27:33;3.10;99.90
2611;DHT22;5612;51.134;17.058;2023-01-24T05:30:02;3.20;99.90
2611;DHT22;5612;51.134;17.058;2023-01-24T05:32:31;3.30;99.90
2611;DHT22;5612;51.134;17.058;2023-01-24T05:35:00;3.30;99.90
2611;DHT22;5612;51.134;17.058;2023-01-24T05:37:30;3.40;99.90
2611;DHT22;5612;51.134;17.058;2023-01-24T05:39:59;3.30;99.90
2611;DHT22;5612;51.134;17.058;2023-01-24T05:42:28;3.30;99.90
2611;DHT22;5612;51.134;17.058;2023-01-24T05:44:56;3.40;99.90
2611;DHT22;5612;51.134;17.058;2023-01-24T05:47:25;3.40;99.90
2611;DHT22;5612;51.134;17.058;2023-01-24T05:49:54;3.40;99.90
2611;DHT22;5612;51.134;17.058;2023-01-24T05:52:23;3.50;99.90
2611;DHT22;5612;51.134;17.058;2023-01-24T05:54:53;3.40;99.90
2611;DHT22;5612;51.134;17.058;2023-01-24T05:57:22;3.30;99.90
2611;DHT22;5612;51.134;17.058;2023-01-24T05:59:51;3.30;99.90
2611;DHT22;5612;51.134;17.058;2023-01-24T06:02:19;3.30;99.90
2611;DHT22;5612;51.134;17.058;2023-01-24T06:04:48;3.30;99.90
2611;DHT22;5612;51.134;17.058;2023-01-24T06:07:17;3.40;99.90
2611;DHT22;5612;51.134;17.058;2023-01-24T06:09:46;3.50;99.90
2611;DHT22;5612;51.134;17.058;2023-01-24T06:12:16;3.50;99.90
2611;DHT22;5612;51.134;17.058;2023-01-24T06:14:45;3.40;99.90
2611;DHT22;5612;51.134;17.058;2023-01-24T06:17:14;3.40;99.90
2611;DHT22;5612;51.134;17.058;2023-01-24T06:19:43;3.30;99.90
2611;DHT22;5612;51.134;17.058;2023-01-24T06:22:18;3.40;99.90
2611;DHT22;5612;51.134;17.058;2023-01-24T06:24:50;3.40;99.90
2611;DHT22;5612;51.134;17.058;2023-01-24T06:27:21;3.30;99.90
2611;DHT22;5612;51.134;17.058;2023-01-24T06:29:50;3.40;99.90
2611;DHT22;5612;51.134;17.058;2023-01-24T06:32:28;3.40;99.90
2611;DHT22;5612;51.134;17.058;2023-01-24T06:35:09;3.30;99.90
2611;DHT22;5612;51.134;17.058;2023-01-24T06:37:44;3.30;99.90
2611;DHT22;5612;51.134;17.058;2023-01-24T06:40:16;3.30;99.90
2611;DHT22;5612;51.134;17.058;2023-01-24T06:42:48;3.30;99.90
2611;DHT22;5612;51.134;17.058;2023-01-24T06:45:17;3.40;99.90
2611;DHT22;5612;51.134;17.058;2023-01-24T06:47:46;3.30;99.90
2611;DHT22;5612;51.134;17.058;2023-01-24T06:50:16;3.20;99.90
2611;DHT22;5612;51.134;17.058;2023-01-24T06:52:46;3.10;99.90
2611;DHT22;5612;51.134;17.058;2023-01-24T06:55:15;3.10;99.90
2611;DHT22;5612;51.134;17.058;2023-01-24T06:57:44;3.20;99.90
2611;DHT22;5612;51.134;17.058;2023-01-24T07:00:17;3.30;99.90
2611;DHT22;5612;51.134;17.058;2023-01-24T07:02:46;3.20;99.90
2611;DHT22;5612;51.134;17.058;2023-01-24T07:05:15;3.30;99.90
2611;DHT22;5612;51.134;17.058;2023-01-24T07:07:44;3.50;99.90
2611;DHT22;5612;51.134;17.058;2023-01-24T07:10:12;3.50;99.90
2611;DHT22;5612;51.134;17.058;2023-01-24T07:12:43;3.50;99.90
2611;DHT22;5612;51.134;17.058;2023-01-24T07:15:12;3.60;99.90
2611;DHT22;5612;51.134;17.058;2023-01-24T07:17:43;3.50;99.90
2611;DHT22;5612;51.134;17.058;2023-01-24T07:20:13;3.50;99.90
2611;DHT22;5612;51.134;17.058;2023-01-24T07:22:43;3.50;99.90
2611;DHT22;5612;51.134;17.058;2023-01-24T07:25:13;3.60;99.90
2611;DHT22;5612;51.134;17.058;2023-01-24T07:27:43;3.60;99.90
2611;DHT22;5612;51.134;17.058;2023-01-24T07:30:13;3.50;99.90
2611;DHT22;5612;51.134;17.058;2023-01-24T07:32:43;3.50;99.90
2611;DHT22;5612;51.134;17.058;2023-01-24T07:35:12;3.40;99.90
2611;DHT22;5612;51.134;17.058;2023-01-24T07:37:41;3.50;99.90
2611;DHT22;5612;51.134;17.058;2023-01-24T07:40:11;3.40;99.90
2611;DHT22;5612;51.134;17.058;2023-01-24T07:42:39;3.50;99.90
2611;DHT22;5612;51.134;17.058;2023-01-24T07:45:09;3.60;99.90
2611;DHT22;5612;51.134;17.058;2023-01-24T07:47:37;3.60;99.90
2611;DHT22;5612;51.134;17.058;2023-01-24T07:50:09;3.60;99.90
2611;DHT22;5612;51.134;17.058;2023-01-24T07:52:38;3.70;99.90
2611;DHT22;5612;51.134;17.058;2023-01-24T07:55:08;3.80;99.90
2611;DHT22;5612;51.134;17.058;2023-01-24T07:57:36;3.80;99.90
2611;DHT22;5612;51.134;17.058;2023-01-24T08:00:07;3.90;99.90
2611;DHT22;5612;51.134;17.058;2023-01-24T08:02:36;4.00;97.30
2611;DHT22;5612;51.134;17.058;2023-01-24T08:05:05;4.00;97.20
2611;DHT22;5612;51.134;17.058;2023-01-24T08:07:36;4.00;92.50
2611;DHT22;5612;51.134;17.058;2023-01-24T08:10:07;3.90;97.10
2611;DHT22;5612;51.134;17.058;2023-01-24T08:12:36;3.90;94.40
2611;DHT22;5612;51.134;17.058;2023-01-24T08:15:06;4.00;93.80
2611;DHT22;5612;51.134;17.058;2023-01-24T08:17:36;3.90;90.10
2611;DHT22;5612;51.134;17.058;2023-01-24T08:20:08;3.90;92.70
2611;DHT22;5612;51.134;17.058;2023-01-24T08:22:43;4.00;95.00
2611;DHT22;5612;51.134;17.058;2023-01-24T08:25:24;4.00;88.70
2611;DHT22;5612;51.134;17.058;2023-01-24T08:27:54;4.20;91.10
2611;DHT22;5612;51.134;17.058;2023-01-24T08:30:29;4.20;73.20
2611;DHT22;5612;51.134;17.058;2023-01-24T08:33:00;4.30;69.60
2611;DHT22;5612;51.134;17.058;2023-01-24T08:35:31;4.30;85.40
2611;DHT22;5612;51.134;17.058;2023-01-24T08:38:02;4.20;72.50
2611;DHT22;5612;51.134;17.058;2023-01-24T08:40:34;4.30;68.00
2611;DHT22;5612;51.134;17.058;2023-01-24T08:43:15;4.30;60.30
2611;DHT22;5612;51.134;17.058;2023-01-24T08:45:44;4.20;84.50
2611;DHT22;5612;51.134;17.058;2023-01-24T08:48:15;4.20;77.10
2611;DHT22;5612;51.134;17.058;2023-01-24T08:50:48;4.20;77.80
2611;DHT22;5612;51.134;17.058;2023-01-24T08:53:19;4.20;71.30
2611;DHT22;5612;51.134;17.058;2023-01-24T08:55:48;4.10;78.50
2611;DHT22;5612;51.134;17.058;2023-01-24T08:58:17;4.30;78.20
2611;DHT22;5612;51.134;17.058;2023-01-24T09:00:48;4.20;76.70
2611;DHT22;5612;51.134;17.058;2023-01-24T09:03:18;4.40;68.00
2611;DHT22;5612;51.134;17.058;2023-01-24T09:05:46;4.50;70.30
2611;DHT22;5612;51.134;17.058;2023-01-24T09:08:15;4.60;46.40
2611;DHT22;5612;51.134;17.058;2023-01-24T09:10:46;4.50;41.70
2611;DHT22;5612;51.134;17.058;2023-01-24T09:13:15;4.50;44.10
2611;DHT22;5612;51.134;17.058;2023-01-24T09:15:44;4.50;53.40
2611;DHT22;5612;51.134;17.058;2023-01-24T09:18:17;4.30;56.60
2611;DHT22;5612;51.134;17.058;2023-01-24T09:20:47;4.40;65.00
2611;DHT22;5612;51.134;17.058;2023-01-24T09:23:16;4.50;57.10
2611;DHT22;5612;51.134;17.058;2023-01-24T09:25:51;4.60;46.10
2611;DHT22;5612;51.134;17.058;2023-01-24T09:28:22;4.50;41.50
2611;DHT22;5612;51.134;17.058;2023-01-24T09:30:51;4.50;55.10
2611;DHT22;5612;51.134;17.058;2023-01-24T09:33:20;4.60;47.90
2611;DHT22;5612;51.134;17.058;2023-01-24T09:35:53;4.70;44.90
2611;DHT22;5612;51.134;17.058;2023-01-24T09:38:24;4.80;37.20
2611;DHT22;5612;51.134;17.058;2023-01-24T09:41:00;4.90;28.90
2611;DHT22;5612;51.134;17.058;2023-01-24T09:43:44;5.00;20.80
2611;DHT22;5612;51.134;17.058;2023-01-24T09:46:23;5.20;11.70
2611;DHT22;5612;51.134;17.058;2023-01-24T09:48:58;5.20;7.00
2611;DHT22;5612;51.134;17.058;2023-01-24T09:51:31;5.20;6.90
2611;DHT22;5612;51.134;17.058;2023-01-24T09:54:04;5.10;1.00
2611;DHT22;5612;51.134;17.058;2023-01-24T09:56:38;5.30;6.20
2611;DHT22;5612;51.134;17.058;2023-01-24T09:59:20;5.40;1.00
2611;DHT22;5612;51.134;17.058;2023-01-24T10:01:52;5.50;1.00
2611;DHT22;5612;51.134;17.058;2023-01-24T10:04:27;5.50;1.00
2611;DHT22;5612;51.134;17.058;2023-01-24T10:10:02;5.70;1.00
2611;DHT22;5612;51.134;17.058;2023-01-24T10:12:43;5.90;1.00
2611;DHT22;5612;51.134;17.058;2023-01-24T10:15:29;5.90;1.00
2611;DHT22;5612;51.134;17.058;2023-01-24T10:24:04;6.00;1.00
2611;DHT22;5612;51.134;17.058;2023-01-24T10:26:38;6.10;1.00
2611;DHT22;5612;51.134;17.058;2023-01-24T10:29:14;6.10;1.00
2611;DHT22;5612;51.134;17.058;2023-01-24T10:31:52;5.80;1.00
2611;DHT22;5612;51.134;17.058;2023-01-24T10:34:28;5.80;1.00
2611;DHT22;5612;51.134;17.058;2023-01-24T10:37:00;5.60;1.00
2611;DHT22;5612;51.134;17.058;2023-01-24T10:39:30;5.80;1.00
2611;DHT22;5612;51.134;17.058;2023-01-24T10:41:59;6.00;1.00
2611;DHT22;5612;51.134;17.058;2023-01-24T10:44:31;6.10;1.00
2611;DHT22;5612;51.134;17.058;2023-01-24T10:47:20;6.00;1.00
2611;DHT22;5612;51.134;17.058;2023-01-24T10:49:56;6.00;1.00
2611;DHT22;5612;51.134;17.058;2023-01-24T10:52:26;6.00;1.00
2611;DHT22;5612;51.134;17.058;2023-01-24T10:54:56;6.10;1.00
2611;DHT22;5612;51.134;17.058;2023-01-24T10:57:33;6.20;1.00
2611;DHT22;5612;51.134;17.058;2023-01-24T11:00:23;6.40;1.00
2611;DHT22;5612;51.134;17.058;2023-01-24T11:02:56;6.50;1.00
2611;DHT22;5612;51.134;17.058;2023-01-24T11:05:37;6.30;1.00
2611;DHT22;5612;51.134;17.058;2023-01-24T11:08:15;5.90;1.00
2611;DHT22;5612;51.134;17.058;2023-01-24T11:10:45;6.10;1.00
2611;DHT22;5612;51.134;17.058;2023-01-24T11:13:29;6.20;1.00
2611;DHT22;5612;51.134;17.058;2023-01-24T11:16:03;6.00;1.00
2611;DHT22;5612;51.134;17.058;2023-01-24T11:18:34;6.10;1.00
2611;DHT22;5612;51.134;17.058;2023-01-24T11:21:12;6.00;1.00
2611;DHT22;5612;51.134;17.058;2023-01-24T11:23:42;6.00;1.00
2611;DHT22;5612;51.134;17.058;2023-01-24T11:26:23;6.00;1.00
2611;DHT22;5612;51.134;17.058;2023-01-24T11:29:00;6.20;1.00
2611;DHT22;5612;51.134;17.058;2023-01-24T11:31:37;6.20;1.00
2611;DHT22;5612;51.134;17.058;2023-01-24T11:37:12;6.40;1.00
2611;DHT22;5612;51.134;17.058;2023-01-24T11:39:54;6.50;1.00
2611;DHT22;5612;51.134;17.058;2023-01-24T11:42:31;6.50;1.00
2611;DHT22;5612;51.134;17.058;2023-01-24T11:45:23;6.60;1.00
2611;DHT22;5612;51.134;17.058;2023-01-24T11:48:08;6.80;1.00
2611;DHT22;5612;51.134;17.058;2023-01-24T11:50:45;6.60;1.00
2611;DHT22;5612;51.134;17.058;2023-01-24T11:53:31;6.60;1.00
2611;DHT22;5612;51.134;17.058;2023-01-24T11:56:11;6.40;1.00
2611;DHT22;5612;51.134;17.058;2023-01-24T11:58:59;6.30;1.00
2611;DHT22;5612;51.134;17.058;2023-01-24T12:01:40;6.30;1.00
2611;DHT22;5612;51.134;17.058;2023-01-24T12:04:45;6.40;1.00
2611;DHT22;5612;51.134;17.058;2023-01-24T12:07:25;6.40;1.00
2611;DHT22;5612;51.134;17.058;2023-01-24T12:10:04;6.40;1.00
2611;DHT22;5612;51.134;17.058;2023-01-24T12:12:41;6.30;1.00
2611;DHT22;5612;51.134;17.058;2023-01-24T12:15:29;6.20;1.00
2611;DHT22;5612;51.134;17.058;2023-01-24T12:18:21;6.30;1.00
2611;DHT22;5612;51.134;17.058;2023-01-24T12:21:03;6.30;1.00
2611;DHT22;5612;51.134;17.058;2023-01-24T12:23:44;6.20;1.00
2611;DHT22;5612;51.134;17.058;2023-01-24T12:26:18;6.20;1.00
2611;DHT22;5612;51.134;17.058;2023-01-24T12:28:57;6.00;1.00
2611;DHT22;5612;51.134;17.058;2023-01-24T12:31:38;6.00;1.00
2611;DHT22;5612;51.134;17.058;2023-01-24T12:34:26;5.90;1.00
2611;DHT22;5612;51.134;17.058;2023-01-24T12:37:12;5.70;1.00
2611;DHT22;5612;51.134;17.058;2023-01-24T12:39:48;5.40;8.90
2611;DHT22;5612;51.134;17.058;2023-01-24T12:42:24;5.40;17.10
2611;DHT22;5612;51.134;17.058;2023-01-24T12:45:10;5.60;5.30
2611;DHT22;5612;51.134;17.058;2023-01-24T12:48:16;5.70;1.00
2611;DHT22;5612;51.134;17.058;2023-01-24T12:50:55;5.90;1.00
2611;DHT22;5612;51.134;17.058;2023-01-24T12:53:33;5.90;1.00
2611;DHT22;5612;51.134;17.058;2023-01-24T12:56:09;5.90;1.00
2611;DHT22;5612;51.134;17.058;2023-01-24T12:58:42;5.80;1.00
2611;DHT22;5612;51.134;17.058;2023-01-24T13:04:26;5.70;1.00
2611;DHT22;5612;51.134;17.058;2023-01-24T13:07:07;5.60;1.00
2611;DHT22;5612;51.134;17.058;2023-01-24T13:09:47;5.70;1.00
2611;DHT22;5612;51.134;17.058;2023-01-24T13:12:25;5.90;1.00
2611;DHT22;5612;51.134;17.058;2023-01-24T13:14:58;6.00;1.00
2611;DHT22;5612;51.134;17.058;2023-01-24T13:17:38;5.80;1.00
2611;DHT22;5612;51.134;17.058;2023-01-24T13:20:34;5.90;1.00
2611;DHT22;5612;51.134;17.058;2023-01-24T13:23:26;5.70;1.00
2611;DHT22;5612;51.134;17.058;2023-01-24T13:26:23;5.60;1.00
2611;DHT22;5612;51.134;17.058;2023-01-24T13:29:09;5.70;1.00
2611;DHT22;5612;51.134;17.058;2023-01-24T13:31:49;5.80;1.00
2611;DHT22;5612;51.134;17.058;2023-01-24T13:34:23;5.90;1.00
2611;DHT22;5612;51.134;17.058;2023-01-24T13:36:55;5.60;1.00
2611;DHT22;5612;51.134;17.058;2023-01-24T13:39:31;5.50;1.40
2611;DHT22;5612;51.134;17.058;2023-01-24T13:42:05;5.50;8.30
2611;DHT22;5612;51.134;17.058;2023-01-24T13:44:35;5.50;1.00
2611;DHT22;5612;51.134;17.058;2023-01-24T13:47:33;5.50;1.00
2611;DHT22;5612;51.134;17.058;2023-01-24T13:50:18;5.40;6.30
2611;DHT22;5612;51.134;17.058;2023-01-24T13:52:49;5.40;14.80
2611;DHT22;5612;51.134;17.058;2023-01-24T13:58:24;5.40;26.50
2611;DHT22;5612;51.134;17.058;2023-01-24T14:00:55;5.40;26.40
2611;DHT22;5612;51.134;17.058;2023-01-24T14:03:32;5.40;23.50
2611;DHT22;5612;51.134;17.058;2023-01-24T14:06:10;5.30;24.00
2611;DHT22;5612;51.134;17.058;2023-01-24T14:08:42;5.40;18.20
2611;DHT22;5612;51.134;17.058;2023-01-24T14:11:36;5.30;22.40
2611;DHT22;5612;51.134;17.058;2023-01-24T14:14:30;5.30;27.10
2611;DHT22;5612;51.134;17.058;2023-01-24T14:17:45;5.30;29.20
2611;DHT22;5612;51.134;17.058;2023-01-24T14:20:41;5.30;38.70
2611;DHT22;5612;51.134;17.058;2023-01-24T14:23:16;5.30;31.10
2611;DHT22;5612;51.134;17.058;2023-01-24T14:25:51;5.30;29.70
2611;DHT22;5612;51.134;17.058;2023-01-24T14:28:28;5.20;47.30
2611;DHT22;5612;51.134;17.058;2023-01-24T14:31:05;5.10;55.80
2611;DHT22;5612;51.134;17.058;2023-01-24T14:33:49;5.10;67.50
2611;DHT22;5612;51.134;17.058;2023-01-24T14:36:28;5.20;60.70
2611;DHT22;5612;51.134;17.058;2023-01-24T14:39:12;5.20;50.60
2611;DHT22;5612;51.134;17.058;2023-01-24T14:41:42;5.20;59.50
2611;DHT22;5612;51.134;17.058;2023-01-24T14:44:20;5.30;51.70
2611;DHT22;5612;51.134;17.058;2023-01-24T14:46:59;5.30;42.30
2611;DHT22;5612;51.134;17.058;2023-01-24T14:49:32;5.30;41.90
2611;DHT22;5612;51.134;17.058;2023-01-24T14:52:15;5.20;52.40
2611;DHT22;5612;51.134;17.058;2023-01-24T14:55:14;5.10;59.10
2611;DHT22;5612;51.134;17.058;2023-01-24T14:58:25;5.00;62.60
2611;DHT22;5612;51.134;17.058;2023-01-24T15:00:59;5.00;73.70
2611;DHT22;5612;51.134;17.058;2023-01-24T15:03:48;5.00;70.20
2611;DHT22;5612;51.134;17.058;2023-01-24T15:06:34;5.00;80.40
2611;DHT22;5612;51.134;17.058;2023-01-24T15:09:17;4.90;74.70
2611;DHT22;5612;51.134;17.058;2023-01-24T15:11:56;4.90;89.30
2611;DHT22;5612;51.134;17.058;2023-01-24T15:14:37;4.90;90.70
2611;DHT22;5612;51.134;17.058;2023-01-24T15:17:23;4.90;90.10
2611;DHT22;5612;51.134;17.058;2023-01-24T15:19:58;5.00;77.50
2611;DHT22;5612;51.134;17.058;2023-01-24T15:22:37;5.10;65.60
2611;DHT22;5612;51.134;17.058;2023-01-24T15:25:18;5.10;65.80
2611;DHT22;5612;51.134;17.058;2023-01-24T15:27:48;5.10;62.90
2611;DHT22;5612;51.134;17.058;2023-01-24T15:30:19;5.20;57.60
2611;DHT22;5612;51.134;17.058;2023-01-24T15:32:49;5.30;51.40
2611;DHT22;5612;51.134;17.058;2023-01-24T15:35:33;5.30;49.20
2611;DHT22;5612;51.134;17.058;2023-01-24T15:38:25;5.30;47.70
2611;DHT22;5612;51.134;17.058;2023-01-24T15:41:18;5.30;41.10
2611;DHT22;5612;51.134;17.058;2023-01-24T15:43:52;5.10;49.90
2611;DHT22;5612;51.134;17.058;2023-01-24T15:46:27;5.10;71.60
2611;DHT22;5612;51.134;17.058;2023-01-24T15:52:29;5.10;71.60
2611;DHT22;5612;51.134;17.058;2023-01-24T15:54:58;5.10;73.70
2611;DHT22;5612;51.134;17.058;2023-01-24T15:57:30;4.70;95.50
2611;DHT22;5612;51.134;17.058;2023-01-24T16:00:03;4.80;99.30
2611;DHT22;5612;51.134;17.058;2023-01-24T16:02:32;4.90;94.40
2611;DHT22;5612;51.134;17.058;2023-01-24T16:05:10;4.90;90.90
2611;DHT22;5612;51.134;17.058;2023-01-24T16:07:44;5.00;84.40
2611;DHT22;5612;51.134;17.058;2023-01-24T16:10:15;4.90;80.10
2611;DHT22;5612;51.134;17.058;2023-01-24T16:12:45;4.90;70.10
2611;DHT22;5612;51.134;17.058;2023-01-24T16:15:16;4.80;85.50
2611;DHT22;5612;51.134;17.058;2023-01-24T16:17:46;4.90;88.60
2611;DHT22;5612;51.134;17.058;2023-01-24T16:20:18;4.80;85.90
2611;DHT22;5612;51.134;17.058;2023-01-24T16:22:50;4.90;84.70
2611;DHT22;5612;51.134;17.058;2023-01-24T16:25:20;4.90;85.70
2611;DHT22;5612;51.134;17.058;2023-01-24T16:27:53;4.90;75.80
2611;DHT22;5612;51.134;17.058;2023-01-24T16:30:25;5.00;81.00
2611;DHT22;5612;51.134;17.058;2023-01-24T16:32:54;4.90;74.70
2611;DHT22;5612;51.134;17.058;2023-01-24T16:35:24;4.80;92.50
2611;DHT22;5612;51.134;17.058;2023-01-24T16:37:55;4.80;95.20
2611;DHT22;5612;51.134;17.058;2023-01-24T16:40:24;4.90;91.30
2611;DHT22;5612;51.134;17.058;2023-01-24T16:42:53;5.00;73.50
2611;DHT22;5612;51.134;17.058;2023-01-24T16:45:23;5.00;77.10
2611;DHT22;5612;51.134;17.058;2023-01-24T16:47:56;5.10;65.70
2611;DHT22;5612;51.134;17.058;2023-01-24T16:50:26;4.90;80.70
2611;DHT22;5612;51.134;17.058;2023-01-24T16:53:01;4.80;90.20
2611;DHT22;5612;51.134;17.058;2023-01-24T16:55:32;4.70;86.90
2611;DHT22;5612;51.134;17.058;2023-01-24T16:58:05;4.70;93.00
2611;DHT22;5612;51.134;17.058;2023-01-24T17:00:38;4.70;93.40
2611;DHT22;5612;51.134;17.058;2023-01-24T17:03:11;4.70;95.80
2611;DHT22;5612;51.134;17.058;2023-01-24T17:05:54;4.80;90.20
2611;DHT22;5612;51.134;17.058;2023-01-24T17:08:28;4.80;87.00
2611;DHT22;5612;51.134;17.058;2023-01-24T17:11:03;4.80;85.20